Time;durP1;ratioP1;P1;durP2;ratioP2;P2;SDS_P1;SDS_P2;PMS_P1;PMS_P2;Temp;Humidity;BMP_temperature;BMP_pressure;BME280_temperature;BME280_humidity;BME280_pressure;Samples;Min_cycle;Max_cycle;Signal;HPM_P1;HPM_P2
2023/01/06 00:00:06;;;;;;;13.85;7.95;;;;;;;;;;6222509;23;20003;-93
2023/01/06 00:02:32;;;;;;;12.40;6.90;;;;;;;;;;6196201;23;20032;-93
2023/01/06 00:04:58;;;;;;;12.40;6.50;;;;;;;;;;6196435;23;19997;-95
2023/01/06 00:07:24;;;;;;;13.10;6.65;;;;;;;;;;6196334;23;20013;-93
2023/01/06 00:09:50;;;;;;;11.30;6.72;;;;;;;;;;6196517;23;20011;-94
2023/01/06 00:12:16;;;;;;;9.70;5.85;;;;;;;;;;6196754;23;20004;-95
2023/01/06 00:14:43;;;;;;;13.98;6.55;;;;;;;;;;6196670;23;20004;-95
2023/01/06 00:17:09;;;;;;;10.23;5.35;;;;;;;;;;6222714;23;20011;-94
2023/01/06 00:19:35;;;;;;;10.20;5.15;;;;;;;;;;6196303;23;20032;-94
2023/01/06 00:22:01;;;;;;;8.75;5.05;;;;;;;;;;6222352;22;20090;-95
2023/01/06 00:24:28;;;;;;;11.43;5.60;;;;;;;;;;6196437;23;20011;-94
2023/01/06 00:26:54;;;;;;;10.18;5.45;;;;;;;;;;6196418;23;20020;-96
2023/01/06 00:29:20;;;;;;;12.32;5.22;;;;;;;;;;6196712;23;20301;-95
2023/01/06 00:31:46;;;;;;;8.60;4.40;;;;;;;;;;6197993;23;20009;-94
2023/01/06 00:34:12;;;;;;;7.38;4.18;;;;;;;;;;6222068;23;20016;-95
2023/01/06 00:36:38;;;;;;;7.88;3.55;;;;;;;;;;6195846;23;20009;-96
2023/01/06 00:39:04;;;;;;;8.55;4.32;;;;;;;;;;6195936;23;20005;-95
2023/01/06 00:42:05;;;;;;;9.40;3.88;;;;;;;;;;6196301;23;20000;-93
2023/01/06 00:44:33;;;;;;;7.75;4.05;;;;;;;;;;6197058;23;20001;-95
2023/01/06 00:46:59;;;;;;;8.32;5.00;;;;;;;;;;6196075;23;20352;-93
2023/01/06 00:49:25;;;;;;;7.07;2.85;;;;;;;;;;6195675;23;20036;-94
2023/01/06 00:51:51;;;;;;;5.97;3.35;;;;;;;;;;6195942;23;20036;-94
2023/01/06 00:54:17;;;;;;;7.97;3.90;;;;;;;;;;6222305;23;20291;-93
2023/01/06 00:56:45;;;;;;;5.55;3.15;;;;;;;;;;6195478;23;20051;-94
2023/01/06 00:59:12;;;;;;;5.15;2.58;;;;;;;;;;6195913;23;20001;-94
2023/01/06 01:01:38;;;;;;;5.68;2.30;;;;;;;;;;6196098;23;20280;-94
2023/01/06 01:04:04;;;;;;;7.32;2.65;;;;;;;;;;6195538;23;20011;-94
2023/01/06 01:06:30;;;;;;;8.05;2.90;;;;;;;;;;6196195;23;20001;-94
2023/01/06 01:08:57;;;;;;;9.50;3.25;;;;;;;;;;6195810;23;20020;-94
2023/01/06 01:20:28;;;;;;;4.95;2.42;;;;;;;;;;6222608;23;20003;-94
2023/01/06 01:22:54;;;;;;;5.18;2.72;;;;;;;;;;6195810;23;20070;-94
2023/01/06 01:25:20;;;;;;;6.45;2.63;;;;;;;;;;6195709;23;20260;-93
2023/01/06 01:27:46;;;;;;;6.30;2.70;;;;;;;;;;6221967;23;20008;-93
2023/01/06 01:30:12;;;;;;;8.52;3.05;;;;;;;;;;6222237;23;20099;-94
2023/01/06 01:32:38;;;;;;;6.18;2.58;;;;;;;;;;6222160;23;20000;-94
2023/01/06 01:35:05;;;;;;;4.72;2.30;;;;;;;;;;6222614;23;20005;-95
2023/01/06 01:37:31;;;;;;;5.53;2.15;;;;;;;;;;6196182;23;20434;-95
2023/01/06 01:39:57;;;;;;;5.05;2.38;;;;;;;;;;6222314;23;20020;-91
2023/01/06 01:42:23;;;;;;;9.18;2.58;;;;;;;;;;6221597;23;20391;-93
2023/01/06 01:44:55;;;;;;;3.85;2.03;;;;;;;;;;6195604;23;20008;-94
2023/01/06 01:47:24;;;;;;;7.20;2.05;;;;;;;;;;6221367;23;20006;-93
2023/01/06 01:49:52;;;;;;;5.90;1.88;;;;;;;;;;6221833;23;20028;-93
2023/01/06 01:52:19;;;;;;;7.55;2.88;;;;;;;;;;6195392;23;20001;-93
2023/01/06 01:54:45;;;;;;;4.47;1.90;;;;;;;;;;6195349;23;20004;-92
2023/01/06 01:57:30;;;;;;;7.72;2.50;;;;;;;;;;6195144;23;20028;-94
2023/01/06 01:59:57;;;;;;;11.65;4.10;;;;;;;;;;6221759;23;20000;-93
2023/01/06 02:02:24;;;;;;;11.02;3.97;;;;;;;;;;6221462;23;20040;-92
2023/01/06 02:04:52;;;;;;;7.80;3.50;;;;;;;;;;6221379;23;20352;-94
2023/01/06 02:07:18;;;;;;;6.78;3.55;;;;;;;;;;6220927;23;20019;-93
2023/01/06 02:09:49;;;;;;;9.40;3.40;;;;;;;;;;6194707;23;20016;-94
2023/01/06 02:12:15;;;;;;;7.30;2.85;;;;;;;;;;6195103;23;20005;-94
2023/01/06 02:14:41;;;;;;;8.73;4.18;;;;;;;;;;6195641;23;20001;-95
2023/01/06 02:17:13;;;;;;;8.43;3.58;;;;;;;;;;6194992;23;20009;-93
2023/01/06 02:19:58;;;;;;;9.70;3.38;;;;;;;;;;6221668;23;20027;-94
2023/01/06 02:22:43;;;;;;;6.85;2.55;;;;;;;;;;6220713;22;20399;-93
2023/01/06 02:25:21;;;;;;;13.77;6.53;;;;;;;;;;6195203;23;20005;-94
2023/01/06 02:28:06;;;;;;;33.08;15.90;;;;;;;;;;6201715;23;20016;-96
2023/01/06 02:30:35;;;;;;;10.93;5.32;;;;;;;;;;6225387;23;20025;-94
2023/01/06 02:33:27;;;;;;;8.00;3.75;;;;;;;;;;6221528;23;20004;-93
2023/01/06 02:35:57;;;;;;;8.13;3.67;;;;;;;;;;6196632;23;20019;-96
2023/01/06 02:38:42;;;;;;;9.43;3.33;;;;;;;;;;6194882;23;20018;-93
2023/01/06 02:41:08;;;;;;;6.45;3.47;;;;;;;;;;6195250;23;20005;-94
2023/01/06 02:43:45;;;;;;;6.00;3.03;;;;;;;;;;6195838;23;20050;-95
2023/01/06 02:46:30;;;;;;;6.70;3.20;;;;;;;;;;6221518;23;19996;-94
2023/01/06 02:49:03;;;;;;;5.55;3.03;;;;;;;;;;6194842;23;20267;-95
2023/01/06 02:51:42;;;;;;;6.75;3.33;;;;;;;;;;6195612;23;20005;-96
2023/01/06 02:54:22;;;;;;;8.55;3.20;;;;;;;;;;6222668;23;20000;-94
2023/01/06 02:56:51;;;;;;;6.00;3.63;;;;;;;;;;6222063;23;20000;-93
2023/01/06 03:02:36;;;;;;;8.85;3.80;;;;;;;;;;6221717;23;20011;-95
2023/01/06 03:05:05;;;;;;;8.48;4.20;;;;;;;;;;6233558;23;20032;-96
2023/01/06 03:07:35;;;;;;;9.65;4.47;;;;;;;;;;6233023;23;20008;-95
2023/01/06 03:10:03;;;;;;;9.10;4.15;;;;;;;;;;6202614;23;20008;-95
2023/01/06 03:12:36;;;;;;;10.65;4.25;;;;;;;;;;6221391;23;20009;-94
2023/01/06 03:15:02;;;;;;;10.57;4.32;;;;;;;;;;6194974;23;20087;-94
2023/01/06 03:17:29;;;;;;;8.00;3.90;;;;;;;;;;6194711;23;20000;-95
2023/01/06 03:19:55;;;;;;;12.98;4.82;;;;;;;;;;6195444;23;20004;-95
2023/01/06 03:22:22;;;;;;;8.00;3.90;;;;;;;;;;6222800;22;20019;-93
2023/01/06 03:24:48;;;;;;;5.47;3.63;;;;;;;;;;6223473;23;20001;-95
2023/01/06 03:30:02;;;;;;;6.60;3.90;;;;;;;;;;6223264;23;20051;-95
2023/01/06 03:32:32;;;;;;;8.02;3.55;;;;;;;;;;6197025;23;20380;-94
2023/01/06 03:35:12;;;;;;;8.35;4.18;;;;;;;;;;6223375;23;20008;-94
2023/01/06 03:37:45;;;;;;;10.93;4.43;;;;;;;;;;6222772;23;20009;-95
2023/01/06 03:40:17;;;;;;;9.98;4.15;;;;;;;;;;6196488;23;20382;-94
2023/01/06 03:48:46;;;;;;;7.65;3.63;;;;;;;;;;6222894;23;20039;-94
2023/01/06 03:51:22;;;;;;;7.18;3.38;;;;;;;;;;6196933;23;20005;-94
2023/01/06 03:53:53;;;;;;;7.18;3.67;;;;;;;;;;6196782;23;20000;-95
2023/01/06 03:56:27;;;;;;;8.10;3.42;;;;;;;;;;6223437;23;20333;-95
2023/01/06 04:05:21;;;;;;;8.85;3.60;;;;;;;;;;6222583;23;20003;-94
2023/01/06 04:07:47;;;;;;;11.52;3.75;;;;;;;;;;6196852;23;20013;-94
2023/01/06 04:10:15;;;;;;;10.52;3.95;;;;;;;;;;6196857;23;20160;-96
2023/01/06 04:15:44;;;;;;;9.00;3.90;;;;;;;;;;6222635;23;20127;-94
2023/01/06 04:18:10;;;;;;;8.70;3.42;;;;;;;;;;6222606;23;20005;-94
2023/01/06 04:20:37;;;;;;;7.15;3.40;;;;;;;;;;6196488;22;20360;-95
2023/01/06 04:23:03;;;;;;;6.05;3.03;;;;;;;;;;6225964;23;20005;-96
2023/01/06 04:25:29;;;;;;;7.15;3.22;;;;;;;;;;6224080;23;20001;-95
2023/01/06 04:27:56;;;;;;;5.13;2.88;;;;;;;;;;6222387;23;20383;-94
2023/01/06 04:30:22;;;;;;;7.95;3.10;;;;;;;;;;6222776;23;20071;-94
2023/01/06 04:32:48;;;;;;;7.78;3.42;;;;;;;;;;6221924;23;20019;-95
2023/01/06 04:35:14;;;;;;;8.60;3.33;;;;;;;;;;6196306;23;20725;-95
2023/01/06 04:37:40;;;;;;;9.32;4.13;;;;;;;;;;6222417;23;20073;-95
2023/01/06 04:40:06;;;;;;;8.60;4.60;;;;;;;;;;6222955;23;20351;-95
2023/01/06 04:43:03;;;;;;;11.57;6.00;;;;;;;;;;6222944;23;20068;-95
2023/01/06 04:45:19;;;;;;;12.93;6.40;;;;;;;;;;6222252;23;20079;-94
2023/01/06 04:47:45;;;;;;;8.75;4.22;;;;;;;;;;6196496;23;20009;-93
2023/01/06 04:50:11;;;;;;;11.02;4.65;;;;;;;;;;6196053;23;20035;-95
2023/01/06 04:52:37;;;;;;;12.82;5.30;;;;;;;;;;6195708;23;20008;-94
2023/01/06 04:55:03;;;;;;;15.88;6.95;;;;;;;;;;6222980;23;20050;-88
2023/01/06 04:57:29;;;;;;;23.90;7.50;;;;;;;;;;6195772;23;20004;-89
2023/01/06 05:00:15;;;;;;;17.50;7.88;;;;;;;;;;6222097;23;20356;-90
2023/01/06 05:02:41;;;;;;;13.68;6.53;;;;;;;;;;6221693;23;20276;-90
2023/01/06 05:05:07;;;;;;;11.65;5.47;;;;;;;;;;6222053;23;20024;-90
2023/01/06 05:07:34;;;;;;;30.92;14.20;;;;;;;;;;6195393;23;20016;-90
2023/01/06 05:10:00;;;;;;;38.15;19.42;;;;;;;;;;6222143;23;20070;-90
2023/01/06 05:12:26;;;;;;;19.42;11.43;;;;;;;;;;6221798;23;20016;-90
2023/01/06 05:14:52;;;;;;;10.93;6.25;;;;;;;;;;6222254;23;20368;-90
2023/01/06 05:17:18;;;;;;;10.57;5.38;;;;;;;;;;6221674;23;20360;-91
2023/01/06 05:19:44;;;;;;;13.30;5.65;;;;;;;;;;6221884;23;20379;-90
2023/01/06 05:22:10;;;;;;;18.88;7.30;;;;;;;;;;6221623;22;20013;-90
2023/01/06 05:24:37;;;;;;;46.00;14.00;;;;;;;;;;6221747;23;20005;-92
2023/01/06 05:27:03;;;;;;;31.10;10.38;;;;;;;;;;6222157;23;20000;-91
2023/01/06 05:29:29;;;;;;;16.48;7.53;;;;;;;;;;6221632;23;20356;-88
2023/01/06 05:31:55;;;;;;;13.45;7.13;;;;;;;;;;6222194;23;20348;-89
2023/01/06 05:34:22;;;;;;;11.52;6.38;;;;;;;;;;6221917;23;20011;-90
2023/01/06 05:36:48;;;;;;;14.05;7.93;;;;;;;;;;6221522;23;20016;-91
2023/01/06 05:39:14;;;;;;;22.05;9.75;;;;;;;;;;6221910;23;20023;-88
2023/01/06 05:41:40;;;;;;;26.13;11.27;;;;;;;;;;6195295;23;20028;-89
2023/01/06 05:44:06;;;;;;;20.48;10.13;;;;;;;;;;6195270;23;20005;-89
2023/01/06 05:46:32;;;;;;;17.27;8.95;;;;;;;;;;6221805;23;20005;-89
2023/01/06 05:48:59;;;;;;;18.67;9.68;;;;;;;;;;6221996;23;20075;-89
2023/01/06 05:51:25;;;;;;;20.58;12.68;;;;;;;;;;6221646;23;20360;-89
2023/01/06 05:53:51;;;;;;;19.55;11.55;;;;;;;;;;6221928;23;20268;-90
2023/01/06 05:56:18;;;;;;;18.52;10.20;;;;;;;;;;6221848;23;20001;-90
2023/01/06 05:59:03;;;;;;;16.25;9.80;;;;;;;;;;6195106;23;20063;-88
2023/01/06 06:01:30;;;;;;;17.33;8.35;;;;;;;;;;6221777;23;20001;-89
2023/01/06 06:03:56;;;;;;;13.25;6.78;;;;;;;;;;6221832;23;20421;-89
2023/01/06 06:06:24;;;;;;;39.55;14.68;;;;;;;;;;6221150;23;20001;-89
2023/01/06 06:08:50;;;;;;;92.65;29.50;;;;;;;;;;6221578;23;20079;-91
2023/01/06 06:11:16;;;;;;;86.05;27.05;;;;;;;;;;6221660;23;20006;-90
2023/01/06 06:17:00;;;;;;;16.48;7.60;;;;;;;;;;6221290;23;20061;-89
2023/01/06 06:19:26;;;;;;;15.43;6.72;;;;;;;;;;6221103;23;20402;-89
2023/01/06 06:21:52;;;;;;;12.38;6.20;;;;;;;;;;6221201;22;20063;-90
2023/01/06 06:24:19;;;;;;;23.50;11.13;;;;;;;;;;6195056;23;20005;-89
2023/01/06 06:26:45;;;;;;;44.10;18.13;;;;;;;;;;6195050;23;20004;-90
2023/01/06 06:35:37;;;;;;;33.08;15.18;;;;;;;;;;6221254;23;20003;-89
2023/01/06 06:38:03;;;;;;;56.83;25.42;;;;;;;;;;6194731;23;20031;-89
2023/01/06 06:40:29;;;;;;;51.90;24.90;;;;;;;;;;6221342;23;20017;-91
2023/01/06 06:42:55;;;;;;;38.85;20.73;;;;;;;;;;6221550;23;19992;-90
2023/01/06 06:45:21;;;;;;;32.38;16.33;;;;;;;;;;6194889;23;20005;-90
2023/01/06 06:47:47;;;;;;;27.70;14.40;;;;;;;;;;6221010;23;20004;-91
2023/01/06 06:50:13;;;;;;;21.13;11.07;;;;;;;;;;6221547;23;20009;-90
2023/01/06 06:52:39;;;;;;;25.95;13.00;;;;;;;;;;6220864;23;20066;-92
2023/01/06 06:55:05;;;;;;;24.40;10.40;;;;;;;;;;6221215;23;20005;-90
2023/01/06 06:57:31;;;;;;;19.65;10.15;;;;;;;;;;6194681;23;20009;-90
2023/01/06 07:03:01;;;;;;;37.30;16.27;;;;;;;;;;6221099;23;20245;-91
2023/01/06 07:05:28;;;;;;;42.58;18.92;;;;;;;;;;6220868;23;20259;-90
2023/01/06 07:07:54;;;;;;;46.63;26.02;;;;;;;;;;6221522;22;20012;-90
2023/01/06 07:10:20;;;;;;;31.08;20.58;;;;;;;;;;6221220;23;20084;-89
2023/01/06 07:12:47;;;;;;;33.58;17.83;;;;;;;;;;6194805;23;20055;-91
2023/01/06 07:15:13;;;;;;;26.15;13.88;;;;;;;;;;6221344;23;20032;-89
2023/01/06 07:17:40;;;;;;;40.03;15.05;;;;;;;;;;6194479;23;20360;-91
2023/01/06 07:20:07;;;;;;;43.20;14.93;;;;;;;;;;6221218;23;20079;-91
2023/01/06 07:22:36;;;;;;;38.90;15.15;;;;;;;;;;6220957;22;20012;-89
2023/01/06 07:25:02;;;;;;;28.17;12.95;;;;;;;;;;6221130;23;20005;-89
2023/01/06 07:27:28;;;;;;;26.98;13.55;;;;;;;;;;6194663;23;20004;-90
2023/01/06 07:32:58;;;;;;;19.05;10.38;;;;;;;;;;6221020;23;20008;-89
2023/01/06 07:35:24;;;;;;;27.17;13.65;;;;;;;;;;6194495;23;20016;-89
2023/01/06 07:37:50;;;;;;;26.38;14.70;;;;;;;;;;6194857;23;20016;-90
2023/01/06 07:40:17;;;;;;;30.83;17.15;;;;;;;;;;6194668;23;20332;-88
2023/01/06 07:42:43;;;;;;;26.33;13.25;;;;;;;;;;6221410;23;20039;-89
2023/01/06 07:45:10;;;;;;;20.33;10.85;;;;;;;;;;6220819;23;20005;-89
2023/01/06 07:47:36;;;;;;;20.60;10.57;;;;;;;;;;6220736;23;20008;-89
2023/01/06 07:50:03;;;;;;;16.60;8.93;;;;;;;;;;6220867;23;20005;-88
2023/01/06 07:52:29;;;;;;;19.13;10.63;;;;;;;;;;6221178;23;20067;-90
2023/01/06 07:54:58;;;;;;;20.55;10.60;;;;;;;;;;6221204;23;20024;-89
2023/01/06 07:57:24;;;;;;;28.55;12.45;;;;;;;;;;6220952;23;20005;-93
2023/01/06 07:59:50;;;;;;;30.63;14.27;;;;;;;;;;6194562;23;20000;-88
2023/01/06 08:02:16;;;;;;;25.00;11.77;;;;;;;;;;6194610;23;20001;-90
2023/01/06 08:04:42;;;;;;;22.50;9.75;;;;;;;;;;6194517;23;20011;-89
2023/01/06 08:07:14;;;;;;;24.63;9.95;;;;;;;;;;6221670;22;20004;-87
2023/01/06 08:09:40;;;;;;;23.67;9.73;;;;;;;;;;6196472;23;20012;-88
2023/01/06 08:12:06;;;;;;;27.40;11.13;;;;;;;;;;6196300;23;20289;-88
2023/01/06 08:14:32;;;;;;;24.35;11.02;;;;;;;;;;6222881;23;20004;-88
2023/01/06 08:16:58;;;;;;;22.58;10.55;;;;;;;;;;6196214;23;20015;-89
2023/01/06 08:19:25;;;;;;;28.00;11.18;;;;;;;;;;6222618;23;20004;-89
2023/01/06 08:21:51;;;;;;;33.88;14.40;;;;;;;;;;6207974;23;20276;-88
2023/01/06 08:24:17;;;;;;;36.10;14.90;;;;;;;;;;6221297;23;20082;-88
2023/01/06 08:26:43;;;;;;;31.42;13.65;;;;;;;;;;6221270;23;20011;-89
2023/01/06 08:29:48;;;;;;;44.45;17.48;;;;;;;;;;6221168;23;20010;-87
2023/01/06 08:32:14;;;;;;;32.22;14.20;;;;;;;;;;6221241;23;20009;-88
2023/01/06 08:34:40;;;;;;;38.58;18.23;;;;;;;;;;6222245;23;20031;-88
2023/01/06 08:37:06;;;;;;;30.13;12.45;;;;;;;;;;6221029;23;20008;-88
2023/01/06 08:39:33;;;;;;;25.05;12.77;;;;;;;;;;6222476;23;20042;-88
2023/01/06 08:41:59;;;;;;;18.55;9.98;;;;;;;;;;6221921;23;20360;-88
2023/01/06 08:44:25;;;;;;;14.88;6.82;;;;;;;;;;6222700;23;20024;-87
2023/01/06 08:46:51;;;;;;;19.83;7.30;;;;;;;;;;6221464;23;20016;-87
2023/01/06 08:49:17;;;;;;;16.50;7.45;;;;;;;;;;6222231;23;20028;-89
2023/01/06 08:51:43;;;;;;;20.05;7.30;;;;;;;;;;6221140;23;20392;-88
2023/01/06 08:54:09;;;;;;;15.30;7.57;;;;;;;;;;6221314;23;20277;-89
2023/01/06 08:56:35;;;;;;;14.88;6.82;;;;;;;;;;6221009;23;20079;-88
2023/01/06 08:59:22;;;;;;;12.45;5.75;;;;;;;;;;6221530;23;20009;-88
2023/01/06 09:01:48;;;;;;;11.32;4.93;;;;;;;;;;6222454;23;20015;-87
2023/01/06 09:04:14;;;;;;;14.25;6.25;;;;;;;;;;6220910;23;20415;-87
2023/01/06 09:06:42;;;;;;;13.52;6.55;;;;;;;;;;6221691;23;20009;-87
2023/01/06 09:09:08;;;;;;;10.63;5.47;;;;;;;;;;6220881;23;20268;-88
2023/01/06 09:11:34;;;;;;;15.20;8.20;;;;;;;;;;6220766;23;20056;-88
2023/01/06 09:14:00;;;;;;;12.15;6.18;;;;;;;;;;6222155;23;20016;-88
2023/01/06 09:16:26;;;;;;;25.30;10.32;;;;;;;;;;6220575;23;20000;-88
2023/01/06 09:18:52;;;;;;;58.42;20.80;;;;;;;;;;6221768;23;20008;-88
2023/01/06 09:21:20;;;;;;;43.35;14.45;;;;;;;;;;6221806;23;20017;-87
2023/01/06 09:23:46;;;;;;;49.22;16.15;;;;;;;;;;6195508;23;20356;-87
2023/01/06 09:26:13;;;;;;;33.72;11.48;;;;;;;;;;6222163;23;20077;-86
2023/01/06 09:28:40;;;;;;;32.17;11.30;;;;;;;;;;6222083;23;20245;-87
2023/01/06 09:31:25;;;;;;;19.60;7.78;;;;;;;;;;6217509;23;20028;-86
2023/01/06 09:33:51;;;;;;;15.00;5.55;;;;;;;;;;6221636;23;20004;-88
2023/01/06 09:36:17;;;;;;;22.58;8.75;;;;;;;;;;6195351;23;20004;-87
2023/01/06 09:38:44;;;;;;;46.58;15.32;;;;;;;;;;6221428;23;20084;-88
2023/01/06 09:41:28;;;;;;;20.52;7.65;;;;;;;;;;6195564;23;20007;-87
2023/01/06 09:46:58;;;;;;;26.40;6.78;;;;;;;;;;6221620;23;20011;-87
2023/01/06 09:49:30;;;;;;;14.52;6.05;;;;;;;;;;6195341;23;20004;-87
2023/01/06 09:52:02;;;;;;;27.35;9.20;;;;;;;;;;6195524;23;20005;-87
2023/01/06 09:54:34;;;;;;;25.17;7.60;;;;;;;;;;6221586;23;20008;-87
2023/01/06 09:57:04;;;;;;;26.33;10.40;;;;;;;;;;6195067;23;20008;-87
2023/01/06 09:59:33;;;;;;;21.40;9.38;;;;;;;;;;6195231;23;20008;-87
2023/01/06 10:02:00;;;;;;;18.27;7.40;;;;;;;;;;6221495;23;20012;-88
2023/01/06 10:04:27;;;;;;;22.27;8.32;;;;;;;;;;6195323;23;20009;-88
2023/01/06 10:06:53;;;;;;;17.60;8.00;;;;;;;;;;6221715;23;20005;-88
2023/01/06 10:09:25;;;;;;;12.75;4.13;;;;;;;;;;6221837;23;20286;-88
2023/01/06 10:12:16;;;;;;;13.45;4.30;;;;;;;;;;6195267;23;20001;-87
2023/01/06 10:17:52;;;;;;;13.98;4.60;;;;;;;;;;6221201;23;20063;-87
2023/01/06 10:20:37;;;;;;;13.90;5.15;;;;;;;;;;6221340;23;20080;-88
2023/01/06 10:23:03;;;;;;;13.32;5.05;;;;;;;;;;6221656;23;20013;-88
2023/01/06 10:25:32;;;;;;;14.13;5.20;;;;;;;;;;6194928;23;20004;-87
2023/01/06 10:28:18;;;;;;;18.83;7.82;;;;;;;;;;6221290;23;20005;-87
2023/01/06 10:30:47;;;;;;;11.77;5.30;;;;;;;;;;6220790;23;20000;-88
2023/01/06 10:33:33;;;;;;;16.90;6.25;;;;;;;;;;6221554;23;20008;-88
2023/01/06 10:35:59;;;;;;;9.23;2.72;;;;;;;;;;6220858;23;20008;-87
2023/01/06 10:38:28;;;;;;;8.68;3.47;;;;;;;;;;6220970;23;20079;-87
2023/01/06 10:40:55;;;;;;;19.80;8.30;;;;;;;;;;6221553;23;20084;-89
2023/01/06 10:43:22;;;;;;;11.80;5.55;;;;;;;;;;6221446;23;20004;-87
2023/01/06 10:46:07;;;;;;;13.50;4.40;;;;;;;;;;6194932;23;20241;-88
2023/01/06 10:48:34;;;;;;;11.20;4.38;;;;;;;;;;6221389;23;20004;-88
2023/01/06 10:51:06;;;;;;;11.73;4.88;;;;;;;;;;6194828;23;20379;-89
2023/01/06 10:53:32;;;;;;;39.33;12.25;;;;;;;;;;6221179;23;20000;-88
2023/01/06 10:55:59;;;;;;;25.45;7.93;;;;;;;;;;6221130;23;20000;-88
2023/01/06 10:58:40;;;;;;;29.80;10.77;;;;;;;;;;6194474;23;20001;-85
2023/01/06 11:01:22;;;;;;;17.05;5.35;;;;;;;;;;6221084;23;20000;-87
2023/01/06 11:04:05;;;;;;;23.55;6.57;;;;;;;;;;6221440;23;20279;-87
2023/01/06 11:06:31;;;;;;;12.63;4.33;;;;;;;;;;6194832;23;20004;-87
2023/01/06 11:08:57;;;;;;;19.58;7.50;;;;;;;;;;6221240;23;20008;-87
2023/01/06 11:11:24;;;;;;;18.05;6.50;;;;;;;;;;6194692;23;20009;-87
2023/01/06 11:13:52;;;;;;;16.40;6.50;;;;;;;;;;6221088;23;20001;-87
2023/01/06 11:16:25;;;;;;;11.93;3.65;;;;;;;;;;6220783;23;20001;-87
2023/01/06 11:18:56;;;;;;;16.30;6.93;;;;;;;;;;6220841;23;20007;-87
2023/01/06 11:21:36;;;;;;;16.00;4.85;;;;;;;;;;6221015;22;20299;-87
2023/01/06 11:24:09;;;;;;;14.45;5.07;;;;;;;;;;6221295;23;20005;-88
2023/01/06 11:26:43;;;;;;;12.60;4.72;;;;;;;;;;6221282;23;20027;-87
2023/01/06 11:35:34;;;;;;;26.65;12.88;;;;;;;;;;6220826;23;20031;-87
2023/01/06 11:38:00;;;;;;;14.68;6.82;;;;;;;;;;6220733;23;20032;-88
2023/01/06 11:40:29;;;;;;;16.58;7.63;;;;;;;;;;6194556;23;20009;-88
2023/01/06 11:42:57;;;;;;;21.67;9.80;;;;;;;;;;6196574;23;20372;-86
2023/01/06 11:48:33;;;;;;;19.27;7.72;;;;;;;;;;6222652;23;20027;-89
2023/01/06 11:51:00;;;;;;;18.08;7.70;;;;;;;;;;6222574;23;20038;-87
2023/01/06 11:53:28;;;;;;;21.40;8.73;;;;;;;;;;6196553;23;20005;-87
2023/01/06 11:56:01;;;;;;;15.05;6.50;;;;;;;;;;6196485;23;20088;-88
2023/01/06 11:58:46;;;;;;;21.30;8.05;;;;;;;;;;6196445;23;20009;-87
2023/01/06 12:04:27;;;;;;;15.82;5.88;;;;;;;;;;6222584;23;20068;-87
2023/01/06 12:07:01;;;;;;;13.23;4.28;;;;;;;;;;6222140;23;20005;-87
2023/01/06 12:09:33;;;;;;;22.85;8.77;;;;;;;;;;6223041;23;20268;-87
2023/01/06 12:12:02;;;;;;;28.35;11.50;;;;;;;;;;6222905;23;20056;-87
2023/01/06 12:14:30;;;;;;;29.42;12.80;;;;;;;;;;6196380;23;20001;-87
2023/01/06 12:17:14;;;;;;;22.08;9.13;;;;;;;;;;6222712;23;20001;-87
2023/01/06 12:19:46;;;;;;;9.20;4.47;;;;;;;;;;6195920;23;20028;-87
2023/01/06 12:22:19;;;;;;;12.13;4.22;;;;;;;;;;6212823;23;20020;-87
2023/01/06 12:24:46;;;;;;;11.70;4.07;;;;;;;;;;6221247;23;20009;-88
2023/01/06 12:27:19;;;;;;;11.13;5.03;;;;;;;;;;6221454;23;20001;-88
2023/01/06 12:29:44;;;;;;;;;;;;;;;;;;6222461;23;20322;-88
2023/01/06 12:32:17;;;;;;;19.65;8.52;;;;;;;;;;6221395;23;19899;-88
2023/01/06 12:34:49;;;;;;;9.40;4.18;;;;;;;;;;6222344;23;19997;-89
2023/01/06 12:37:15;;;;;;;;;;;;;;;;;;6222215;23;20088;-89
2023/01/06 12:39:48;;;;;;;18.67;9.32;;;;;;;;;;6220818;23;19961;-86
2023/01/06 12:42:20;;;;;;;12.63;4.03;;;;;;;;;;6220813;23;20032;-87
2023/01/06 12:44:50;;;;;;;23.77;11.27;;;;;;;;;;6220954;23;20367;-88
2023/01/06 12:47:19;;;;;;;16.30;7.60;;;;;;;;;;6222070;23;20001;-87
2023/01/06 12:49:51;;;;;;;16.52;6.80;;;;;;;;;;6222446;23;20015;-88
2023/01/06 12:52:19;;;;;;;15.43;6.53;;;;;;;;;;6222326;23;20390;-87
2023/01/06 12:54:50;;;;;;;11.80;4.53;;;;;;;;;;6222917;23;20012;-88
2023/01/06 12:57:16;;;;;;;12.10;4.95;;;;;;;;;;6222505;23;20004;-89
2023/01/06 13:00:00;;;;;;;18.80;8.38;;;;;;;;;;6220987;23;20512;-88
2023/01/06 13:02:44;;;;;;;10.23;3.85;;;;;;;;;;6220896;23;20004;-89
2023/01/06 13:05:19;;;;;;;8.48;4.72;;;;;;;;;;6221099;23;20019;-88
2023/01/06 13:08:10;;;;;;;10.07;4.68;;;;;;;;;;6222055;23;20012;-89
2023/01/06 13:10:45;;;;;;;12.02;4.68;;;;;;;;;;6220714;23;20091;-92
2023/01/06 13:13:26;;;;;;;11.52;5.43;;;;;;;;;;6221122;23;20004;-95
2023/01/06 13:15:58;;;;;;;11.98;4.30;;;;;;;;;;6222175;23;20005;-95
2023/01/06 13:18:24;;;;;;;11.82;4.45;;;;;;;;;;6221208;23;20083;-94
2023/01/06 13:21:06;;;;;;;318.83;25.63;;;;;;;;;;6221855;22;20099;-96
2023/01/06 13:23:43;;;;;;;15.38;4.68;;;;;;;;;;6196084;23;19996;-95
2023/01/06 13:26:13;;;;;;;12.07;4.72;;;;;;;;;;6196414;23;20007;-94
2023/01/06 13:28:45;;;;;;;10.00;4.22;;;;;;;;;;6196059;23;20005;-94
2023/01/06 14:11:31;;;;;;;34.53;14.45;;;;;;;;;;5994468;23;20008;-91
2023/01/06 14:34:09;;;;;;;16.52;6.97;;;;;;;;;;6271123;22;20111;-95
2023/01/06 14:37:24;;;;;;;;;;;;;;;;;;;;;
2023/01/06 14:43:36;;;;;;;;;;;;;;;;;;;;;
2023/01/06 14:46:15;;;;;;;16.52;10.25;;;;;;;;;;6217845;23;20308;-88
2023/01/06 14:48:59;;;;;;;49.10;21.73;;;;;;;;;;6195398;23;20056;-95
2023/01/06 14:51:43;;;;;;;83.15;32.35;;;;;;;;;;6223959;23;20027;-96
2023/01/06 14:54:44;;;;;;;65.30;27.85;;;;;;;;;;6223471;23;20001;-84
2023/01/06 14:57:43;;;;;;;127.47;49.45;;;;;;;;;;6205657;23;20076;-95
2023/01/06 15:03:47;;;;;;;135.68;49.90;;;;;;;;;;6249651;22;20029;-96
2023/01/06 15:12:35;;;;;;;61.17;27.65;;;;;;;;;;6181894;22;20028;-96
2023/01/06 15:22:01;;;;;;;167.13;81.50;;;;;;;;;;6257422;22;20050;-94
2023/01/06 15:24:45;;;;;;;;;;;;;;;;;;;;;
2023/01/06 15:27:14;;;;;;;134.55;71.38;;;;;;;;;;6131844;23;20081;-95
2023/01/06 15:29:51;;;;;;;138.38;71.72;;;;;;;;;;6127421;23;20029;-95
2023/01/06 15:38:41;;;;;;;134.32;75.25;;;;;;;;;;6131879;23;20105;-95
2023/01/06 15:41:31;;;;;;;167.82;83.38;;;;;;;;;;6131901;23;20006;-95
2023/01/06 15:43:55;;;;;;;164.85;87.55;;;;;;;;;;6133597;23;20018;-95
2023/01/06 15:46:39;;;;;;;171.65;89.93;;;;;;;;;;6110432;23;20011;-95
2023/01/06 15:49:14;;;;;;;168.98;90.93;;;;;;;;;;6107815;23;20539;-95
2023/01/06 15:54:16;;;;;;;189.70;99.22;;;;;;;;;;6248135;22;20031;-95
2023/01/06 15:56:44;;;;;;;244.23;129.52;;;;;;;;;;6206180;23;20005;-94
2023/01/06 16:05:02;;;;;;;382.48;182.90;;;;;;;;;;6287516;22;20031;-95
2023/01/06 16:16:38;;;;;;;;;;;;;;;;;;;;;
2023/01/06 16:28:28;;;;;;;467.13;222.70;;;;;;;;;;6237728;22;20031;-96
2023/01/06 16:34:15;;;;;;;1570.35;701.92;;;;;;;;;;6177620;22;20030;-94
2023/01/06 16:37:13;;;;;;;1423.05;669.08;;;;;;;;;;6210963;23;20031;-96
2023/01/06 16:39:40;;;;;;;565.88;293.60;;;;;;;;;;6258259;22;20065;-93
2023/01/06 16:45:12;;;;;;;621.47;326.33;;;;;;;;;;6255336;23;20016;-95
2023/01/06 16:50:44;;;;;;;525.38;272.83;;;;;;;;;;6252635;23;20034;-95
2023/01/06 16:53:13;;;;;;;447.27;225.35;;;;;;;;;;6253860;22;20020;-94
2023/01/06 16:55:40;;;;;;;375.40;193.68;;;;;;;;;;6254231;22;20255;-94
2023/01/06 16:58:38;;;;;;;375.60;189.18;;;;;;;;;;6276552;22;20036;-96
2023/01/06 17:04:02;;;;;;;351.40;177.45;;;;;;;;;;6191524;23;20016;-93
2023/01/06 17:06:31;;;;;;;389.42;196.23;;;;;;;;;;6190643;23;20497;-95
2023/01/06 17:09:03;;;;;;;395.52;200.48;;;;;;;;;;6165218;23;20037;-93
2023/01/06 17:11:33;;;;;;;547.97;284.17;;;;;;;;;;6189564;23;20020;-92
2023/01/06 17:14:03;;;;;;;671.70;341.55;;;;;;;;;;6190174;23;20009;-94
2023/01/06 17:16:35;;;;;;;585.20;303.02;;;;;;;;;;6190710;22;20084;-94
2023/01/06 17:19:20;;;;;;;475.45;242.25;;;;;;;;;;6189890;23;20005;-95
2023/01/06 17:21:47;;;;;;;324.52;164.32;;;;;;;;;;6165503;23;20001;-91
2023/01/06 17:24:25;;;;;;;359.70;183.15;;;;;;;;;;6189229;23;20001;-91
2023/01/06 17:26:53;;;;;;;386.83;201.15;;;;;;;;;;6164259;23;20075;-94
2023/01/06 17:29:20;;;;;;;376.10;199.05;;;;;;;;;;6188903;23;20009;-92
2023/01/06 17:35:13;;;;;;;511.20;280.42;;;;;;;;;;6190577;23;20040;-93
2023/01/06 17:37:41;;;;;;;595.38;326.48;;;;;;;;;;6246512;23;20027;-93
2023/01/06 17:40:14;;;;;;;500.80;275.00;;;;;;;;;;6251189;23;20091;-94
2023/01/06 17:42:42;;;;;;;396.73;207.32;;;;;;;;;;6252556;23;20109;-93
2023/01/06 17:45:27;;;;;;;363.52;194.00;;;;;;;;;;6251109;23;20043;-90
2023/01/06 17:50:57;;;;;;;300.08;165.25;;;;;;;;;;6254930;23;20400;-94
2023/01/06 17:56:12;;;;;;;556.47;294.38;;;;;;;;;;6284271;22;20063;-95
2023/01/06 17:58:42;;;;;;;437.67;243.98;;;;;;;;;;6255651;22;20007;-94
2023/01/06 18:01:09;;;;;;;458.90;249.85;;;;;;;;;;6283361;22;20377;-93
2023/01/06 18:07:11;;;;;;;388.58;209.00;;;;;;;;;;6100785;23;20033;-88
2023/01/06 18:09:40;;;;;;;412.35;216.15;;;;;;;;;;6101940;23;20270;-93
2023/01/06 18:12:14;;;;;;;417.10;213.30;;;;;;;;;;6103961;23;20172;-90